Flight Track Log - Related Links

Times and Time Zones

All times are in EDT time to prevent confusion due to time zone crossing. See the SWA1380 flight status page for this flight to view local times or setup timezone preferences in your user account.

Time Position Orientation Groundspeed Altitude Reporting Facility
EDT Latitude Longitude Course Direction KTS MPH feet Rate Location/Type
Fri 02:13:53 PM 41.8000 -87.7667 56° Northeast 141 162 2,000  Level Chicago TRACON
Fri 02:14:48 PM 41.8167 -87.7333 56° Northeast 217 250 3,200 2,508 Climbing Chicago TRACON
Fri 02:17:02 PM 41.6706 -87.6772 164° South 274 315 9,900 2,847 Climbing Chicago Center
Fri 02:18:04 PM 41.5867 -87.6403 162° South 312 359 12,500 2,855 Climbing Chicago Center
Fri 02:19:06 PM 41.4958 -87.6014 162° South 337 388 15,800 2,855 Climbing Chicago Center
Fri 02:20:08 PM 41.3986 -87.5667 165° South 352 405 18,400 2,661 Climbing Chicago Center
Fri 02:21:10 PM 41.2897 -87.5494 173° South 385 443 21,300 2,613 Climbing Chicago Center
Fri 02:22:12 PM 41.1819 -87.5286 172° South 390 449 23,800 2,371 Climbing Chicago Center
Fri 02:23:14 PM 41.0461 -87.4908 168° South 409 471 26,200 2,177 Climbing Chicago Center
Fri 02:24:16 PM 40.9289 -87.4594 169° South 425 489 28,300 2,016 Climbing Chicago Center
Fri 02:25:19 PM 40.8158 -87.3992 158° South 434 499 30,400 2,016 Climbing Chicago Center
Fri 02:26:21 PM 40.7056 -87.3317 155° Southeast 438 504 32,500 1,935 Climbing Chicago Center
Fri 02:27:23 PM 40.5964 -87.2647 155° Southeast 436 502 34,400 1,548 Climbing Chicago Center
Fri 02:28:25 PM 40.4661 -87.1858 155° Southeast 431 496 35,700 1,258 Climbing Chicago Center
Fri 02:29:27 PM 40.3525 -87.1164 155° Southeast 440 506 37,000 1,403 Climbing Chicago Center
Fri 02:30:29 PM 40.2411 -87.0519 156° South 440 506 38,600 968 Climbing Chicago Center
Fri 02:31:31 PM 40.1344 -86.9847 154° Southeast 431 496 39,000 216 Climbing Chicago Center
Fri 02:32:20 PM 40.0697 -86.8886 131° Southeast 434 499 39,000  Level Indianapolis Center
Fri 02:33:22 PM 39.9983 -86.7572 125° Southeast 441 507 39,000  Level Indianapolis Center
Fri 02:34:24 PM 39.9292 -86.6250 124° Southeast 444 511 39,000  Level Indianapolis Center
Fri 02:35:25 PM 39.8439 -86.4664 125° Southeast 447 514 39,000  Level Indianapolis Center
Fri 02:36:27 PM 39.7717 -86.3333 125° Southeast 440 506 39,000  Level Indianapolis Center
Fri 02:37:29 PM 39.7019 -86.2036 125° Southeast 437 503 39,000  Level Indianapolis Center
Fri 02:38:31 PM 39.6292 -86.0678 125° Southeast 435 501 39,000  Level Indianapolis Center
Fri 02:39:33 PM 39.5592 -85.9392 125° Southeast 437 503 39,000  Level Indianapolis Center
Fri 02:40:35 PM 39.4889 -85.8111 125° Southeast 438 504 39,000  Level Indianapolis Center
Fri 02:41:37 PM 39.4228 -85.6769 123° Southeast 445 512 39,000  Level Indianapolis Center
Fri 02:42:39 PM 39.3811 -85.5161 108° East 473 544 39,000  Level Indianapolis Center
Fri 02:43:41 PM 39.3406 -85.3553 108° East 474 545 39,000  Level Indianapolis Center
Fri 02:44:43 PM 39.2911 -85.1614 108° East 476 548 39,000  Level Indianapolis Center
Fri 02:45:45 PM 39.2483 -85.0003 109° East 475 547 39,000  Level Indianapolis Center
Fri 02:46:47 PM 39.2047 -84.8336 109° East 480 552 39,000  Level Indianapolis Center
Fri 02:47:49 PM 39.1617 -84.6700 109° East 479 551 39,000  Level Indianapolis Center
Fri 02:48:51 PM 39.1167 -84.5064 109° East 482 555 39,000  Level Indianapolis Center
Fri 02:49:53 PM 39.0736 -84.3406 108° East 485 558 39,000  Level Indianapolis Center
Fri 02:50:55 PM 39.0297 -84.1764 109° East 485 558 39,000  Level Indianapolis Center
Fri 02:51:57 PM 38.9764 -83.9822 109° East 489 563 39,000  Level Indianapolis Center
Fri 02:52:59 PM 38.9319 -83.8156 109° East 491 565 39,000  Level Indianapolis Center
Fri 02:54:01 PM 38.8856 -83.6481 110° East 495 570 39,000  Level Indianapolis Center
Fri 02:55:03 PM 38.8397 -83.4797 109° East 499 574 39,000  Level Indianapolis Center
Fri 02:56:04 PM 38.7933 -83.3111 109° East 500 575 39,000  Level Indianapolis Center
Fri 02:57:06 PM 38.7411 -83.1228 110° East 500 575 39,000 -516 Level Indianapolis Center
Fri 02:59:10 PM 38.6439 -82.7811 110° East 501 577 37,400 -871 Descending Indianapolis Center
Fri 03:00:12 PM 38.5958 -82.6158 110° East 495 570 36,300 -968 Descending Indianapolis Center
Fri 03:01:14 PM 38.5517 -82.4631 110° East 488 562 35,400 -1,065 Descending Indianapolis Center
Fri 03:02:16 PM 38.4964 -82.2719 110° East 480 552 34,100 -677 Descending Indianapolis Center
Fri 03:03:18 PM 38.4519 -82.1172 110° East 471 542 34,000 -48 Descending Indianapolis Center
Fri 03:04:20 PM 38.4053 -81.9622 111° Southeast 470 541 34,000 -339 Level Indianapolis Center
Fri 03:05:22 PM 38.3733 -81.8025 104° East 470 541 33,300 -480 Descending Indianapolis Center
Fri 03:06:25 PM 38.3522 -81.6422 99° East 464 534 33,000 -144 Descending Indianapolis Center
Fri 03:07:27 PM 38.3261 -81.4478 100° East 469 540 33,000 -145 Level Indianapolis Center
Fri 03:08:29 PM 38.3019 -81.2842 101° East 474 545 32,700 -968 Descending Indianapolis Center
Fri 03:09:31 PM 38.2722 -81.1222 103° East 474 545 31,000 -2,129 Descending Indianapolis Center
Fri 03:10:33 PM 38.2433 -80.9586 103° East 477 549 28,300 -2,371 Descending Indianapolis Center
Fri 03:11:35 PM 38.2147 -80.7983 103° East 467 537 26,100 -1,548 Descending Indianapolis Center
Fri 03:12:37 PM 38.1881 -80.6431 102° East 451 519 25,100 -532 Descending Indianapolis Center
Fri 03:13:39 PM 38.1550 -80.4592 103° East 445 512 25,000 -47 Descending Indianapolis Center
Fri 03:14:46 PM 38.1247 -80.2956 103° East 439 505 25,000  Level Washington Center
Fri 03:15:47 PM 38.0953 -80.1406 104° East 439 505 25,000  Level Washington Center
Fri 03:16:47 PM 38.0675 -79.9914 103° East 439 505 25,000  Level Washington Center
Fri 03:17:46 PM 38.0453 -79.8581 102° East 434 499 25,000 -250 Level Washington Center
Fri 03:18:47 PM 38.0106 -79.7139 107° East 434 499 24,500 -694 Descending Washington Center
Fri 03:19:47 PM 37.9758 -79.5722 107° East 429 494 23,600 -763 Descending Washington Center
Fri 03:20:45 PM 37.9408 -79.4283 107° East 429 494 23,000 -303 Descending Washington Center
Fri 03:21:46 PM 37.9019 -79.2708 107° East 429 494 23,000  Level Washington Center
Fri 03:22:47 PM 37.8667 -79.1297 108° East 429 494 23,000  Level Washington Center
Fri 03:23:47 PM 37.8311 -78.9914 108° East 424 488 23,000 -101 Level Washington Center
Fri 03:24:46 PM 37.7953 -78.8506 108° East 424 488 22,800 -605 Descending Washington Center
Fri 03:25:46 PM 37.7614 -78.7125 107° East 424 488 21,800 -893 Descending Washington Center
Fri 03:26:47 PM 37.7311 -78.5903 107° East 418 481 21,000 -397 Descending Washington Center
Fri 03:27:47 PM 37.6969 -78.4578 108° East 406 467 21,000  Level Washington Center
Fri 03:28:45 PM 37.6603 -78.3253 109° East 406 467 21,000  Level Washington Center
Fri 03:29:45 PM 37.6258 -78.1878 108° East 406 467 21,000  Level Washington Center
Fri 03:30:46 PM 37.5869 -78.0528 110° East 411 473 21,000  Level Washington Center
Fri 03:31:46 PM 37.5522 -77.9153 108° East 411 473 21,000 -446 Level Washington Center
Fri 03:32:47 PM 37.5256 -77.7783 104° East 406 467 20,100 -942 Descending Washington Center
Fri 03:33:47 PM 37.5133 -77.6392 96° East 401 461 19,100 -1,119 Descending Washington Center
Fri 03:34:45 PM 37.5053 -77.5028 94° East 396 456 17,900 -1,866 Descending Washington Center
Fri 03:35:46 PM 37.4969 -77.3692 94° East 391 450 15,400 -2,430 Descending Washington Center
Fri 03:36:46 PM 37.4864 -77.2328 96° East 386 444 13,000 -1,736 Descending Washington Center
Fri 03:37:47 PM 37.4775 -77.1069 95° East 377 434 11,900 -561 Descending Washington Center
Fri 03:38:33 PM 37.4683 -77.0022 96° East 351 404 12,000 158 Climbing Washington Center
Fri 03:39:03 PM 37.4650 -76.9367 94° East 347 399 12,100 -83 Climbing Washington Center
Fri 03:39:45 PM 37.4594 -76.8608 95° East 348 400 11,900  Descending Washington Center
Fri 03:40:06 PM 37.4558 -76.8161 96° East 349 402 12,100 98 Climbing Washington Center
Fri 03:40:46 PM 37.4503 -76.7375 95° East 353 406 12,000 -90 Descending Washington Center
Fri 03:41:13 PM 37.4489 -76.6722 92° East 353 406 12,000  Level Washington Center
Fri 03:41:48 PM 37.4453 -76.6119 94° East 353 406 12,000  Level Washington Center
Fri 03:42:12 PM 37.4414 -76.5492 94° East 355 409 12,000  Level Washington Center
Fri 03:42:45 PM 37.4378 -76.4917 95° East 353 406 12,000  Level Washington Center
Fri 03:43:18 PM 37.4342 -76.4158 93° East 355 409 12,000  Level Washington Center
Fri 03:43:45 PM 37.4303 -76.3686 96° East 353 406 12,000 -526 Level Washington Center
Fri 03:44:15 PM 37.4264 -76.3058 94° East 327 376 11,500 -1,082 Descending Washington Center
Fri 03:44:46 PM 37.4225 -76.2561 96° East 336 387 10,900 -1,729 Descending Washington Center
Fri 03:45:14 PM 37.4208 -76.1986 92° East 309 356 9,800 -1,967 Descending Washington Center
Fri 03:45:47 PM 37.4169 -76.1436 95° East 319 367 8,900 -1,524 Descending Washington Center
Fri 03:46:17 PM 37.3942 -76.1094 130° Southeast 283 326 8,200 -1,448 Descending Washington Center
Fri 03:46:45 PM 37.3692 -76.0728 131° Southeast 264 304 7,500 -1,424 Descending Washington Center
Fri 03:47:16 PM 37.3297 -76.0517 157° South 255 293 6,800 -1,279 Descending Washington Center
Fri 03:47:46 PM 37.3006 -76.0539 183° South 226 260 6,200 -1,143 Descending Washington Center
Fri 03:48:19 PM 37.2631 -76.0511 177° South 241 277 5,600 -791 Descending Washington Center
Fri 03:49:17 PM 37.1961 -76.0558 183° South 238 274 5,000 -621 Descending Washington Center

Login

Don't have an account? Register now (free) for customized features, flight alerts, and more!